createdAt,value
2023-03-28T00:00:33.203Z,1010.25
2023-03-28T00:01:32.477Z,1010.29
2023-03-28T00:02:32.888Z,1010.25
2023-03-28T00:03:33.238Z,1010.26
2023-03-28T00:04:33.428Z,1010.34
2023-03-28T00:05:33.970Z,1010.25
2023-03-28T00:06:34.072Z,1010.37
2023-03-28T00:07:34.290Z,1010.34
2023-03-28T00:08:34.549Z,1010.42
2023-03-28T00:09:34.826Z,1010.41
2023-03-28T00:10:35.181Z,1010.57
2023-03-28T00:11:35.393Z,1010.50
2023-03-28T00:12:35.672Z,1010.49
2023-03-28T00:13:35.959Z,1010.57
2023-03-28T00:14:36.210Z,1010.62
2023-03-28T00:15:36.585Z,1010.63
2023-03-28T00:16:36.743Z,1010.67
2023-03-28T00:17:37.046Z,1010.59
2023-03-28T00:18:37.244Z,1010.62
2023-03-28T00:19:37.659Z,1010.62
2023-03-28T00:20:37.959Z,1010.71
2023-03-28T00:21:38.165Z,1010.63
2023-03-28T00:22:38.549Z,1010.61
2023-03-28T00:23:38.785Z,1010.58
2023-03-28T00:24:39.109Z,1010.58
2023-03-28T00:25:39.393Z,1010.61
2023-03-28T00:26:39.604Z,1010.63
2023-03-28T00:27:39.846Z,1010.72
2023-03-28T00:28:40.137Z,1010.69
2023-03-28T00:29:40.451Z,1010.75
2023-03-28T00:30:40.783Z,1010.70
2023-03-28T00:31:41.139Z,1010.77
2023-03-28T00:32:41.453Z,1010.76
2023-03-28T00:33:41.647Z,1010.80
2023-03-28T00:34:41.868Z,1010.83
2023-03-28T00:35:42.226Z,1010.86
2023-03-28T00:36:42.588Z,1010.82
2023-03-28T00:37:42.844Z,1010.80
2023-03-28T00:38:43.099Z,1010.83
2023-03-28T00:39:43.332Z,1010.84
2023-03-28T00:40:43.546Z,1010.84
2023-03-28T00:41:43.889Z,1010.85
2023-03-28T00:42:44.226Z,1010.86
2023-03-28T00:43:44.539Z,1010.94
2023-03-28T00:44:44.919Z,1010.88
2023-03-28T00:45:47.274Z,1010.91
2023-03-28T00:46:46.569Z,1010.87
2023-03-28T00:47:45.925Z,1010.97
2023-03-28T00:48:46.104Z,1010.94
2023-03-28T00:49:46.424Z,1010.99
2023-03-28T00:50:46.828Z,1010.95
2023-03-28T00:51:47.056Z,1010.94
2023-03-28T00:52:47.357Z,1011.01
2023-03-28T00:53:47.715Z,1010.98
2023-03-28T00:54:48.008Z,1011.08
2023-03-28T00:55:48.355Z,1010.96
2023-03-28T00:56:48.561Z,1011.05
2023-03-28T00:57:48.929Z,1011.14
2023-03-28T00:58:49.237Z,1011.11
2023-03-28T00:59:49.612Z,1011.07
2023-03-28T01:00:49.863Z,1011.14
2023-03-28T01:01:50.184Z,1011.11
2023-03-28T01:02:50.446Z,1011.23
2023-03-28T01:03:50.755Z,1011.16
2023-03-28T01:04:50.961Z,1011.28
2023-03-28T01:05:51.307Z,1011.30
2023-03-28T01:06:51.626Z,1011.27
2023-03-28T01:07:52.020Z,1011.30
2023-03-28T01:08:52.202Z,1011.30
2023-03-28T01:09:52.559Z,1011.33
2023-03-28T01:10:52.912Z,1011.36
2023-03-28T01:11:53.105Z,1011.37
2023-03-28T01:12:53.466Z,1011.32
2023-03-28T01:13:53.734Z,1011.36
2023-03-28T01:14:53.953Z,1011.40
2023-03-28T01:15:54.308Z,1011.39
2023-03-28T01:16:54.482Z,1011.38
2023-03-28T01:17:54.957Z,1011.36
2023-03-28T01:18:55.136Z,1011.38
2023-03-28T01:19:55.343Z,1011.44
2023-03-28T01:20:55.686Z,1011.45
2023-03-28T01:21:56.074Z,1011.39
2023-03-28T01:22:58.189Z,1011.48
2023-03-28T01:24:10.860Z,1011.47
2023-03-28T01:24:57.845Z,1011.56
2023-03-28T01:25:57.349Z,1011.52
2023-03-28T01:26:57.512Z,1011.49
2023-03-28T01:27:57.793Z,1011.53
2023-03-28T01:28:58.103Z,1011.53
2023-03-28T01:29:58.323Z,1011.49
2023-03-28T01:30:58.622Z,1011.64
2023-03-28T01:31:58.950Z,1011.64
2023-03-28T01:32:59.232Z,1011.61
2023-03-28T01:33:59.483Z,1011.67
2023-03-28T01:34:59.642Z,1011.67
2023-03-28T01:36:00.188Z,1011.72
2023-03-28T01:37:00.277Z,1011.71
2023-03-28T01:38:00.488Z,1011.67
2023-03-28T01:39:00.840Z,1011.71
2023-03-28T01:40:01.108Z,1011.65
2023-03-28T01:41:01.362Z,1011.69
2023-03-28T01:42:01.589Z,1011.78
2023-03-28T01:43:01.965Z,1011.76
2023-03-28T01:44:02.198Z,1011.82
2023-03-28T01:45:02.461Z,1011.83
2023-03-28T01:46:03.071Z,1011.86
2023-03-28T01:47:02.981Z,1011.77
2023-03-28T01:48:03.221Z,1011.86
2023-03-28T01:49:03.400Z,1011.85
2023-03-28T01:50:03.776Z,1011.85
2023-03-28T01:51:04.111Z,1011.90
2023-03-28T01:52:04.304Z,1011.86
2023-03-28T01:53:04.637Z,1011.87
2023-03-28T01:54:05.008Z,1011.90
2023-03-28T01:55:05.302Z,1011.87
2023-03-28T01:56:05.512Z,1011.91
2023-03-28T01:57:05.795Z,1011.88
2023-03-28T01:58:06.032Z,1011.89
2023-03-28T01:59:06.392Z,1011.95
2023-03-28T02:00:06.598Z,1011.93
2023-03-28T02:01:07.061Z,1012.03
2023-03-28T02:02:07.267Z,1011.98
2023-03-28T02:03:07.703Z,1011.96
2023-03-28T02:04:20.265Z,1011.98
2023-03-28T02:05:09.130Z,1012.03
2023-03-28T02:06:08.492Z,1012.04
2023-03-28T02:07:08.675Z,1012.01
2023-03-28T02:08:08.984Z,1012.00
2023-03-28T02:09:09.345Z,1012.03
2023-03-28T02:10:09.537Z,1012.12
2023-03-28T02:11:09.882Z,1012.05
2023-03-28T02:12:10.195Z,1012.12
2023-03-28T02:13:10.534Z,1012.13
2023-03-28T02:14:10.834Z,1012.12
2023-03-28T02:15:11.137Z,1012.18
2023-03-28T02:16:11.492Z,1012.19
2023-03-28T02:17:11.841Z,1012.14
2023-03-28T02:18:12.168Z,1012.17
2023-03-28T02:19:12.507Z,1012.19
2023-03-28T02:20:12.782Z,1012.20
2023-03-28T02:21:13.121Z,1012.23
2023-03-28T02:22:13.431Z,1012.32
2023-03-28T02:23:13.746Z,1012.37
2023-03-28T02:24:14.073Z,1012.34
2023-03-28T02:25:14.405Z,1012.34
2023-03-28T02:26:14.789Z,1012.31
2023-03-28T02:27:14.944Z,1012.37
2023-03-28T02:28:15.263Z,1012.34
2023-03-28T02:29:15.601Z,1012.43
2023-03-28T02:30:15.906Z,1012.39
2023-03-28T02:31:16.276Z,1012.37
2023-03-28T02:32:16.457Z,1012.46
2023-03-28T02:33:16.761Z,1012.41
2023-03-28T02:34:17.074Z,1012.48
2023-03-28T02:35:17.494Z,1012.43
2023-03-28T02:36:17.671Z,1012.43
2023-03-28T02:37:17.998Z,1012.42
2023-03-28T02:38:18.299Z,1012.48
2023-03-28T02:39:18.610Z,1012.50
2023-03-28T02:40:18.940Z,1012.55
2023-03-28T02:41:19.275Z,1012.56
2023-03-28T02:42:19.469Z,1012.53
2023-03-28T02:43:19.792Z,1012.53
2023-03-28T02:44:21.437Z,1012.56
2023-03-28T02:45:20.378Z,1012.57
2023-03-28T02:46:20.743Z,1012.57
2023-03-28T02:47:20.975Z,1012.56
2023-03-28T02:48:21.193Z,1012.63
2023-03-28T02:49:21.386Z,1012.67
2023-03-28T02:50:21.710Z,1012.61
2023-03-28T02:51:22.051Z,1012.62
2023-03-28T02:52:22.271Z,1012.62
2023-03-28T02:53:22.601Z,1012.61
2023-03-28T02:54:22.932Z,1012.59
2023-03-28T02:55:23.221Z,1012.63
2023-03-28T02:56:23.560Z,1012.66
2023-03-28T02:57:23.919Z,1012.65
2023-03-28T02:58:24.241Z,1012.68
2023-03-28T02:59:24.451Z,1012.70
2023-03-28T03:00:24.754Z,1012.75
2023-03-28T03:01:25.140Z,1012.70
2023-03-28T03:02:25.351Z,1012.73
2023-03-28T03:03:25.657Z,1012.72
2023-03-28T03:04:25.965Z,1012.70
2023-03-28T03:05:26.305Z,1012.65
2023-03-28T03:06:26.657Z,1012.72
2023-03-28T03:07:26.992Z,1012.75
2023-03-28T03:08:27.282Z,1012.74
2023-03-28T03:09:27.602Z,1012.72
2023-03-28T03:10:27.939Z,1012.85
2023-03-28T03:11:28.291Z,1012.79
2023-03-28T03:12:28.492Z,1012.79
2023-03-28T03:13:28.794Z,1012.81
2023-03-28T03:14:29.130Z,1012.84
2023-03-28T03:15:29.465Z,1012.87
2023-03-28T03:16:29.883Z,1012.89
2023-03-28T03:17:30.077Z,1012.95
2023-03-28T03:18:30.434Z,1012.99
2023-03-28T03:19:30.628Z,1013.06
2023-03-28T03:20:30.994Z,1013.04
2023-03-28T03:21:31.186Z,1013.04
2023-03-28T03:22:31.496Z,1012.99
2023-03-28T03:23:31.821Z,1013.03
2023-03-28T03:24:32.100Z,1013.09
2023-03-28T03:25:32.436Z,1013.04
2023-03-28T03:26:32.793Z,1013.08
2023-03-28T03:27:32.990Z,1013.10
2023-03-28T03:28:33.313Z,1013.12
2023-03-28T03:29:38.503Z,1013.10
2023-03-28T03:30:34.947Z,1013.16
2023-03-28T03:31:34.240Z,1013.12
2023-03-28T03:32:34.598Z,1013.15
2023-03-28T03:33:34.876Z,1013.17
2023-03-28T03:34:35.208Z,1013.09
2023-03-28T03:35:35.594Z,1013.17
2023-03-28T03:36:35.787Z,1013.18
2023-03-28T03:37:36.121Z,1013.13
2023-03-28T03:38:36.462Z,1013.24
2023-03-28T03:39:36.757Z,1013.28
2023-03-28T03:40:37.069Z,1013.24
2023-03-28T03:41:37.417Z,1013.27
2023-03-28T03:42:37.622Z,1013.27
2023-03-28T03:43:37.973Z,1013.32
2023-03-28T03:44:38.265Z,1013.32
2023-03-28T03:45:38.584Z,1013.36
2023-03-28T03:46:39.088Z,1013.35
2023-03-28T03:47:39.171Z,1013.39
2023-03-28T03:48:39.488Z,1013.40
2023-03-28T03:49:40.796Z,1013.40
2023-03-28T03:50:40.057Z,1013.38
2023-03-28T03:51:40.406Z,1013.43
2023-03-28T03:52:40.716Z,1013.39
2023-03-28T03:53:41.027Z,1013.49
2023-03-28T03:54:41.356Z,1013.43
2023-03-28T03:55:41.697Z,1013.49
2023-03-28T03:56:42.079Z,1013.48
2023-03-28T03:57:42.257Z,1013.44
2023-03-28T03:58:42.580Z,1013.40
2023-03-28T03:59:43.017Z,1013.49
2023-03-28T04:00:43.228Z,1013.51
2023-03-28T04:01:43.561Z,1013.54
2023-03-28T04:02:43.852Z,1013.50
2023-03-28T04:03:44.086Z,1013.45
2023-03-28T04:04:44.255Z,1013.47
2023-03-28T04:05:44.592Z,1013.52
2023-03-28T04:06:44.929Z,1013.54
2023-03-28T04:07:45.278Z,1013.56
2023-03-28T04:08:45.588Z,1013.47
2023-03-28T04:09:45.899Z,1013.57
2023-03-28T04:10:47.294Z,1013.47
2023-03-28T04:11:46.555Z,1013.58
2023-03-28T04:12:46.864Z,1013.56
2023-03-28T04:13:47.172Z,1013.59
2023-03-28T04:14:47.500Z,1013.56
2023-03-28T04:15:47.905Z,1013.57
2023-03-28T04:16:48.106Z,1013.56
2023-03-28T04:17:48.476Z,1013.64
2023-03-28T04:18:48.771Z,1013.61
2023-03-28T04:19:49.068Z,1013.60
2023-03-28T04:20:49.409Z,1013.70
2023-03-28T04:21:49.750Z,1013.69
2023-03-28T04:22:49.958Z,1013.75
2023-03-28T04:23:50.289Z,1013.75
2023-03-28T04:24:50.609Z,1013.75
2023-03-28T04:25:50.942Z,1013.71
2023-03-28T04:26:51.330Z,1013.64
2023-03-28T04:27:51.507Z,1013.79
2023-03-28T04:28:51.860Z,1013.77
2023-03-28T04:29:52.053Z,1013.74
2023-03-28T04:30:52.409Z,1013.74
2023-03-28T04:31:52.803Z,1013.74
2023-03-28T04:32:53.091Z,1013.77
2023-03-28T04:33:53.343Z,1013.83
2023-03-28T04:34:53.666Z,1013.86
2023-03-28T04:35:54.030Z,1013.90
2023-03-28T04:36:54.372Z,1013.86
2023-03-28T04:37:54.583Z,1013.83
2023-03-28T04:38:54.920Z,1013.88
2023-03-28T04:39:55.131Z,1013.98
2023-03-28T04:40:55.473Z,1013.93
2023-03-28T04:41:55.972Z,1013.97
2023-03-28T04:42:56.133Z,1014.04
2023-03-28T04:43:56.369Z,1014.03
2023-03-28T04:44:56.596Z,1014.05
2023-03-28T04:45:57.025Z,1014.06
2023-03-28T04:46:57.263Z,1014.06
2023-03-28T04:47:57.559Z,1014.07
2023-03-28T04:48:57.775Z,1014.08
2023-03-28T04:49:58.024Z,1014.15
2023-03-28T04:50:58.237Z,1014.10
2023-03-28T04:51:58.457Z,1014.16
2023-03-28T04:52:58.710Z,1014.22
2023-03-28T04:53:58.940Z,1014.22
2023-03-28T04:54:59.187Z,1014.23
2023-03-28T04:55:59.590Z,1014.29
2023-03-28T04:56:59.743Z,1014.29
2023-03-28T04:57:59.954Z,1014.30
2023-03-28T04:59:00.313Z,1014.36
2023-03-28T05:00:00.598Z,1014.29
2023-03-28T05:01:00.989Z,1014.31
2023-03-28T05:02:01.160Z,1014.41
2023-03-28T05:03:01.475Z,1014.40
2023-03-28T05:04:01.628Z,1014.45
2023-03-28T05:05:01.873Z,1014.47
2023-03-28T05:06:02.095Z,1014.46
2023-03-28T05:07:02.324Z,1014.43
2023-03-28T05:08:02.549Z,1014.50
2023-03-28T05:09:02.916Z,1014.42
2023-03-28T05:10:03.152Z,1014.43
2023-03-28T05:11:03.360Z,1014.52
2023-03-28T05:12:03.756Z,1014.48
2023-03-28T05:13:03.981Z,1014.55
2023-03-28T05:14:04.193Z,1014.55
2023-03-28T05:15:04.538Z,1014.54
2023-03-28T05:16:04.932Z,1014.60
2023-03-28T05:17:05.141Z,1014.60
2023-03-28T05:18:05.434Z,1014.66
2023-03-28T05:19:05.643Z,1014.63
2023-03-28T05:20:05.911Z,1014.69
2023-03-28T05:21:06.312Z,1014.67
2023-03-28T05:22:06.443Z,1014.74
2023-03-28T05:23:06.658Z,1014.78
2023-03-28T05:24:06.920Z,1014.71
2023-03-28T05:25:07.139Z,1014.71
2023-03-28T05:26:07.385Z,1014.72
2023-03-28T05:27:07.672Z,1014.75
2023-03-28T05:28:07.895Z,1014.71
2023-03-28T05:29:08.240Z,1014.79
2023-03-28T05:30:08.486Z,1014.86
2023-03-28T05:31:08.762Z,1014.88
2023-03-28T05:32:09.972Z,1014.83
2023-03-28T05:33:09.337Z,1014.89
2023-03-28T05:34:09.586Z,1014.85
2023-03-28T05:35:09.830Z,1014.85
2023-03-28T05:36:10.135Z,1014.89
2023-03-28T05:37:10.420Z,1014.82
2023-03-28T05:38:10.648Z,1014.88
2023-03-28T05:39:10.921Z,1014.89
2023-03-28T05:40:11.125Z,1014.87
2023-03-28T05:41:11.377Z,1014.86
2023-03-28T05:42:11.659Z,1014.86
2023-03-28T05:43:11.868Z,1014.82
2023-03-28T05:44:12.119Z,1014.85
2023-03-28T05:45:12.416Z,1014.92
2023-03-28T05:46:12.674Z,1014.88
2023-03-28T05:47:12.877Z,1014.93
2023-03-28T05:48:13.087Z,1014.93
2023-03-28T05:49:13.366Z,1014.88
2023-03-28T05:50:13.586Z,1014.89
2023-03-28T05:51:13.827Z,1014.91
2023-03-28T05:52:14.071Z,1014.95
2023-03-28T05:53:14.423Z,1014.94
2023-03-28T05:54:14.613Z,1014.85
2023-03-28T05:55:14.977Z,1014.88
2023-03-28T05:56:15.192Z,1014.93
2023-03-28T05:57:15.573Z,1015.00
2023-03-28T05:58:15.813Z,1014.98
2023-03-28T05:59:16.060Z,1014.94
2023-03-28T06:00:16.398Z,1014.99
2023-03-28T06:01:16.760Z,1014.98
2023-03-28T06:02:17.000Z,1014.91
2023-03-28T06:03:17.605Z,1015.01
2023-03-28T06:04:17.567Z,1014.94
2023-03-28T06:05:17.898Z,1015.04
2023-03-28T06:06:18.228Z,1015.00
2023-03-28T06:07:39.310Z,1014.97
2023-03-28T06:08:19.914Z,1014.98
2023-03-28T06:09:19.285Z,1015.07
2023-03-28T06:10:19.313Z,1015.03
2023-03-28T06:11:19.575Z,1015.01
2023-03-28T06:12:19.853Z,1015.02
2023-03-28T06:13:20.100Z,1015.02
2023-03-28T06:14:21.007Z,1015.09
2023-03-28T06:15:20.629Z,1015.09
2023-03-28T06:16:30.276Z,1015.22
2023-03-28T06:17:22.152Z,1015.11
2023-03-28T06:18:21.537Z,1015.18
2023-03-28T06:19:21.818Z,1015.20
2023-03-28T06:20:22.020Z,1015.24
2023-03-28T06:21:22.253Z,1015.29
2023-03-28T06:22:22.506Z,1015.28
2023-03-28T06:23:22.797Z,1015.32
2023-03-28T06:24:22.987Z,1015.32
2023-03-28T06:25:23.331Z,1015.40
2023-03-28T06:26:23.691Z,1015.39
2023-03-28T06:27:23.984Z,1015.40
2023-03-28T06:28:24.185Z,1015.45
2023-03-28T06:29:24.521Z,1015.47
2023-03-28T06:30:26.145Z,1015.36
2023-03-28T06:31:25.199Z,1015.51
2023-03-28T06:32:25.567Z,1015.54
2023-03-28T06:33:25.822Z,1015.49
2023-03-28T06:34:26.067Z,1015.49
2023-03-28T06:35:26.289Z,1015.50
2023-03-28T06:36:26.632Z,1015.53
2023-03-28T06:37:27.010Z,1015.55
2023-03-28T06:38:27.263Z,1015.62
2023-03-28T06:39:27.613Z,1015.56
2023-03-28T06:40:27.907Z,1015.71
2023-03-28T06:41:28.098Z,1015.64
2023-03-28T06:42:28.507Z,1015.67
2023-03-28T06:43:28.721Z,1015.70
2023-03-28T06:44:29.121Z,1015.74
2023-03-28T06:45:29.335Z,1015.73
2023-03-28T06:46:29.635Z,1015.76
2023-03-28T06:47:29.881Z,1015.75
2023-03-28T06:48:30.083Z,1015.81
2023-03-28T06:49:30.331Z,1015.85
2023-03-28T06:50:30.585Z,1015.92
2023-03-28T06:51:30.819Z,1015.89
2023-03-28T06:52:31.049Z,1015.83
2023-03-28T06:53:31.282Z,1015.88
2023-03-28T06:54:31.525Z,1015.84
2023-03-28T06:55:31.780Z,1015.96
2023-03-28T06:56:32.053Z,1015.87
2023-03-28T06:57:32.362Z,1015.81
2023-03-28T06:58:32.597Z,1015.85
2023-03-28T06:59:32.922Z,1015.87
2023-03-28T07:00:33.135Z,1015.92
2023-03-28T07:01:33.532Z,1015.85
2023-03-28T07:02:33.832Z,1015.93
2023-03-28T07:03:34.199Z,1015.98
2023-03-28T07:04:34.403Z,1015.90
2023-03-28T07:05:34.673Z,1015.95
2023-03-28T07:06:34.972Z,1015.91
2023-03-28T07:07:35.194Z,1015.91
2023-03-28T07:08:35.446Z,1015.98
2023-03-28T07:09:35.794Z,1016.08
2023-03-28T07:10:36.057Z,1015.92
2023-03-28T07:11:36.361Z,1016.08
2023-03-28T07:12:36.587Z,1015.99
2023-03-28T07:13:36.820Z,1015.97
2023-03-28T07:14:37.069Z,1016.03
2023-03-28T07:15:37.268Z,1016.03
2023-03-28T07:16:37.677Z,1016.07
2023-03-28T07:17:37.946Z,1016.21
2023-03-28T07:18:38.158Z,1016.10
2023-03-28T07:19:38.376Z,1016.06
2023-03-28T07:20:38.609Z,1016.20
2023-03-28T07:21:38.860Z,1016.17
2023-03-28T07:22:39.185Z,1016.22
2023-03-28T07:23:39.467Z,1016.21
2023-03-28T07:24:39.674Z,1016.17
2023-03-28T07:25:39.902Z,1016.17
2023-03-28T07:26:40.129Z,1016.20
2023-03-28T07:27:40.381Z,1016.21
2023-03-28T07:28:40.608Z,1016.24
2023-03-28T07:29:40.853Z,1016.22
2023-03-28T07:30:41.090Z,1016.13
2023-03-28T07:31:41.479Z,1016.15
2023-03-28T07:32:53.285Z,1016.24
2023-03-28T07:33:43.006Z,1016.18
2023-03-28T07:34:42.148Z,1016.29
2023-03-28T07:35:42.533Z,1016.26
2023-03-28T07:36:42.712Z,1016.38
2023-03-28T07:37:43.074Z,1016.30
2023-03-28T07:38:43.325Z,1016.27
2023-03-28T07:39:43.591Z,1016.35
2023-03-28T07:40:43.852Z,1016.43
2023-03-28T07:41:44.069Z,1016.23
2023-03-28T07:42:44.442Z,1016.39
2023-03-28T07:43:44.690Z,1016.42
2023-03-28T07:44:44.945Z,1016.36
2023-03-28T07:45:45.236Z,1016.41
2023-03-28T07:46:45.414Z,1016.43
2023-03-28T07:47:45.903Z,1016.58
2023-03-28T07:48:46.106Z,1016.49
2023-03-28T07:49:46.372Z,1016.54
2023-03-28T07:50:46.593Z,1016.44
2023-03-28T07:51:46.967Z,1016.48
2023-03-28T07:52:47.357Z,1016.41
2023-03-28T07:53:47.442Z,1016.46
2023-03-28T07:54:47.698Z,1016.55
2023-03-28T07:55:54.441Z,1016.57
2023-03-28T07:56:49.192Z,1016.55
2023-03-28T07:57:48.457Z,1016.64
2023-03-28T07:58:48.687Z,1016.63
2023-03-28T07:59:48.917Z,1016.63
2023-03-28T08:00:49.187Z,1016.64
2023-03-28T08:01:49.392Z,1016.65
2023-03-28T08:02:49.753Z,1016.65
2023-03-28T08:03:50.051Z,1016.69
2023-03-28T08:04:50.216Z,1016.72
2023-03-28T08:05:50.486Z,1016.72
2023-03-28T08:06:50.706Z,1016.72
2023-03-28T08:07:51.034Z,1016.76
2023-03-28T08:08:51.243Z,1016.75
2023-03-28T08:09:51.583Z,1016.78
2023-03-28T08:10:51.897Z,1016.76
2023-03-28T08:11:52.086Z,1016.86
2023-03-28T08:12:52.347Z,1016.83
2023-03-28T08:13:52.578Z,1016.81
2023-03-28T08:14:52.925Z,1016.90
2023-03-28T08:15:55.096Z,1016.83
2023-03-28T08:16:53.493Z,1016.92
2023-03-28T08:17:53.798Z,1016.81
2023-03-28T08:19:09.426Z,1016.85
2023-03-28T08:19:55.277Z,1016.88
2023-03-28T08:20:54.566Z,1016.87
2023-03-28T08:21:54.807Z,1016.86
2023-03-28T08:22:55.068Z,1016.89
2023-03-28T08:23:55.309Z,1016.87
2023-03-28T08:24:55.542Z,1016.90
2023-03-28T08:25:55.822Z,1016.87
2023-03-28T08:26:56.051Z,1016.81
2023-03-28T08:27:56.337Z,1016.80
2023-03-28T08:28:56.608Z,1016.94
2023-03-28T08:29:56.856Z,1016.94
2023-03-28T08:30:57.113Z,1016.86
2023-03-28T08:31:57.311Z,1016.94
2023-03-28T08:32:57.596Z,1017.01
2023-03-28T08:33:57.806Z,1017.00
2023-03-28T08:34:58.082Z,1017.05
2023-03-28T08:35:58.320Z,1016.93
2023-03-28T08:36:58.529Z,1016.93
2023-03-28T08:37:58.834Z,1016.94
2023-03-28T08:38:59.034Z,1016.94
2023-03-28T08:39:59.273Z,1016.96
2023-03-28T08:40:59.642Z,1017.06
2023-03-28T08:41:59.854Z,1016.94
2023-03-28T08:43:00.117Z,1017.03
2023-03-28T08:44:00.312Z,1017.09
2023-03-28T08:45:00.584Z,1017.08
2023-03-28T08:46:00.816Z,1017.02
2023-03-28T08:47:01.073Z,1017.14
2023-03-28T08:48:01.491Z,1017.01
2023-03-28T08:49:01.900Z,1017.05
2023-03-28T08:50:01.953Z,1016.98
2023-03-28T08:51:02.508Z,1017.09
2023-03-28T08:52:02.489Z,1017.11
2023-03-28T08:53:02.872Z,1017.14
2023-03-28T08:54:03.097Z,1017.10
2023-03-28T08:55:03.352Z,1017.06
2023-03-28T08:56:03.578Z,1017.18
2023-03-28T08:57:03.855Z,1017.16
2023-03-28T08:58:04.046Z,1017.26
2023-03-28T08:59:04.292Z,1017.28
2023-03-28T09:00:04.518Z,1017.33
2023-03-28T09:01:04.763Z,1017.33
2023-03-28T09:02:06.452Z,1017.58
2023-03-28T09:03:05.348Z,1017.49
2023-03-28T09:04:05.729Z,1017.65
2023-03-28T09:05:22.520Z,1017.54
2023-03-28T09:06:07.145Z,1017.58
2023-03-28T09:07:06.434Z,1017.66
2023-03-28T09:08:06.655Z,1017.66
2023-03-28T09:09:07.013Z,1017.71
2023-03-28T09:10:07.255Z,1017.78
2023-03-28T09:11:07.474Z,1017.84
2023-03-28T09:12:07.818Z,1017.72
2023-03-28T09:13:08.081Z,1017.85
2023-03-28T09:14:08.305Z,1017.83
2023-03-28T09:15:08.540Z,1017.77
2023-03-28T09:16:08.818Z,1017.84
2023-03-28T09:17:09.020Z,1017.96
2023-03-28T09:18:09.334Z,1017.86
2023-03-28T09:19:09.586Z,1017.85
2023-03-28T09:20:09.877Z,1017.82
2023-03-28T09:21:10.092Z,1017.82
2023-03-28T09:22:16.045Z,1017.88
2023-03-28T09:23:11.685Z,1017.87
2023-03-28T09:24:10.958Z,1017.83
2023-03-28T09:25:11.181Z,1017.84
2023-03-28T09:26:11.542Z,1017.87
2023-03-28T09:27:11.866Z,1017.91
2023-03-28T09:28:12.210Z,1017.81
2023-03-28T09:29:12.459Z,1017.94
2023-03-28T09:30:12.716Z,1017.89
2023-03-28T09:31:13.093Z,1017.91
2023-03-28T09:32:13.281Z,1017.88
2023-03-28T09:33:13.455Z,1017.93
2023-03-28T09:34:13.672Z,1017.90
2023-03-28T09:35:14.036Z,1017.92
2023-03-28T09:36:14.308Z,1017.94
2023-03-28T09:37:14.516Z,1017.97
2023-03-28T09:38:14.760Z,1017.87
2023-03-28T09:39:14.994Z,1017.83
2023-03-28T09:40:15.234Z,1017.93
2023-03-28T09:41:15.460Z,1017.88
2023-03-28T09:42:15.717Z,1017.97
2023-03-28T09:43:15.958Z,1017.93
2023-03-28T09:44:16.206Z,1017.89
2023-03-28T09:45:16.458Z,1017.81
2023-03-28T09:46:16.730Z,1017.92
2023-03-28T09:47:16.970Z,1017.92
2023-03-28T09:48:19.634Z,1018.03
2023-03-28T09:49:17.581Z,1017.93
2023-03-28T09:50:17.880Z,1018.00
2023-03-28T09:51:18.061Z,1018.05
2023-03-28T09:52:18.293Z,1017.98
2023-03-28T09:53:18.558Z,1018.05
2023-03-28T09:54:18.775Z,1018.14
2023-03-28T09:55:19.033Z,1017.98
2023-03-28T09:56:19.243Z,1018.10
2023-03-28T09:57:19.513Z,1018.04
2023-03-28T09:58:19.764Z,1018.14
2023-03-28T09:59:19.983Z,1018.11
2023-03-28T10:00:20.378Z,1018.17
2023-03-28T10:01:20.584Z,1018.14
2023-03-28T10:02:20.795Z,1018.22
2023-03-28T10:03:21.090Z,1018.23
2023-03-28T10:04:21.396Z,1018.19
2023-03-28T10:05:21.590Z,1018.20
2023-03-28T10:06:21.822Z,1018.25
2023-03-28T10:07:22.165Z,1018.22
2023-03-28T10:08:22.429Z,1018.21
2023-03-28T10:09:22.658Z,1018.19
2023-03-28T10:10:22.879Z,1018.29
2023-03-28T10:11:23.226Z,1018.28
2023-03-28T10:12:23.445Z,1018.36
2023-03-28T10:13:23.738Z,1018.36
2023-03-28T10:14:23.958Z,1018.32
2023-03-28T10:15:24.187Z,1018.32
2023-03-28T10:16:24.541Z,1018.36
2023-03-28T10:17:24.698Z,1018.31
2023-03-28T10:18:24.920Z,1018.27
2023-03-28T10:19:25.161Z,1018.31
2023-03-28T10:20:25.389Z,1018.37
2023-03-28T10:21:25.597Z,1018.41
2023-03-28T10:22:25.941Z,1018.28
2023-03-28T10:23:26.301Z,1018.44
2023-03-28T10:24:26.526Z,1018.32
2023-03-28T10:25:26.766Z,1018.39
2023-03-28T10:26:27.001Z,1018.44
2023-03-28T10:27:27.287Z,1018.37
2023-03-28T10:28:27.554Z,1018.41
2023-03-28T10:29:27.767Z,1018.38
2023-03-28T10:30:28.006Z,1018.42
2023-03-28T10:31:28.263Z,1018.45
2023-03-28T10:32:28.555Z,1018.36
2023-03-28T10:33:28.809Z,1018.41
2023-03-28T10:34:29.045Z,1018.31
2023-03-28T10:35:29.293Z,1018.43
2023-03-28T10:36:29.502Z,1018.50
2023-03-28T10:37:29.748Z,1018.41
2023-03-28T10:38:29.991Z,1018.56
2023-03-28T10:39:30.258Z,1018.46
2023-03-28T10:40:30.593Z,1018.55
2023-03-28T10:41:30.814Z,1018.51
2023-03-28T10:42:31.037Z,1018.64
2023-03-28T10:43:31.397Z,1018.56
2023-03-28T10:44:31.748Z,1018.60
2023-03-28T10:45:31.980Z,1018.62
2023-03-28T10:46:32.318Z,1018.66
2023-03-28T10:47:32.479Z,1018.66
2023-03-28T10:48:32.697Z,1018.51
2023-03-28T10:49:32.933Z,1018.60
2023-03-28T10:50:34.729Z,1018.57
2023-03-28T10:51:33.488Z,1018.52
2023-03-28T10:52:33.705Z,1018.57
2023-03-28T10:53:34.125Z,1018.42
2023-03-28T10:54:34.337Z,1018.65
2023-03-28T10:55:34.734Z,1018.67
2023-03-28T10:56:34.958Z,1018.58
2023-03-28T10:57:35.309Z,1018.71
2023-03-28T10:58:35.577Z,1018.69
2023-03-28T10:59:35.815Z,1018.67
2023-03-28T11:00:36.027Z,1018.77
2023-03-28T11:01:36.440Z,1018.75
2023-03-28T11:02:36.735Z,1018.63
2023-03-28T11:03:36.934Z,1018.66
2023-03-28T11:04:37.149Z,1018.60
2023-03-28T11:05:37.388Z,1018.66
2023-03-28T11:06:37.644Z,1018.75
2023-03-28T11:07:37.835Z,1018.72
2023-03-28T11:08:38.194Z,1018.78
2023-03-28T11:09:38.416Z,1018.79
2023-03-28T11:10:38.658Z,1018.81
2023-03-28T11:11:38.896Z,1018.88
2023-03-28T11:12:51.334Z,1018.81
2023-03-28T11:13:40.492Z,1018.70
2023-03-28T11:14:39.771Z,1018.68
2023-03-28T11:15:40.112Z,1018.72
2023-03-28T11:16:40.446Z,1018.72
2023-03-28T11:17:40.665Z,1018.68
2023-03-28T11:18:40.902Z,1018.74
2023-03-28T11:19:41.114Z,1018.63
2023-03-28T11:20:41.449Z,1018.64
2023-03-28T11:21:41.817Z,1018.67
2023-03-28T11:22:45.845Z,1018.65
2023-03-28T11:23:43.416Z,1018.67
2023-03-28T11:24:42.679Z,1018.74
2023-03-28T11:25:42.906Z,1018.72
2023-03-28T11:26:43.268Z,1018.68
2023-03-28T11:27:43.495Z,1018.78
2023-03-28T11:28:46.433Z,1018.70
2023-03-28T11:29:44.430Z,1018.78
2023-03-28T11:30:44.217Z,1018.64
2023-03-28T11:31:44.587Z,1018.77
2023-03-28T11:32:44.911Z,1018.71
2023-03-28T11:33:45.263Z,1018.86
2023-03-28T11:34:45.517Z,1018.78
2023-03-28T11:35:45.809Z,1018.82
2023-03-28T11:36:45.985Z,1018.78
2023-03-28T11:37:46.347Z,1018.69
2023-03-28T11:38:46.584Z,1018.80
2023-03-28T11:39:46.806Z,1018.77
2023-03-28T11:40:47.051Z,1018.78
2023-03-28T11:41:47.373Z,1018.71
2023-03-28T11:42:47.599Z,1018.82
2023-03-28T11:43:48.445Z,1018.80
2023-03-28T11:44:48.837Z,1018.77
2023-03-28T11:45:52.747Z,1018.83
2023-03-28T11:46:48.872Z,1018.79
2023-03-28T11:47:49.120Z,1018.80
2023-03-28T11:48:50.068Z,1018.80
2023-03-28T11:49:50.391Z,1018.81
2023-03-28T11:50:49.958Z,1018.74
2023-03-28T11:51:50.922Z,1018.76
2023-03-28T11:52:50.475Z,1018.68
2023-03-28T11:53:50.936Z,1018.88
2023-03-28T11:54:51.062Z,1018.71
2023-03-28T11:55:51.433Z,1018.79
2023-03-28T11:56:51.659Z,1018.78
2023-03-28T11:57:51.915Z,1018.67
2023-03-28T11:58:52.162Z,1018.76
2023-03-28T11:59:52.428Z,1018.79
2023-03-28T12:00:53.436Z,1018.75
2023-03-28T12:01:53.056Z,1018.76
2023-03-28T12:02:53.401Z,1018.77
2023-03-28T12:03:54.498Z,1018.62
2023-03-28T12:04:53.800Z,1018.67
2023-03-28T12:06:02.597Z,1018.63
2023-03-28T12:07:02.523Z,1018.66
2023-03-28T12:07:55.602Z,1018.69
2023-03-28T12:08:54.909Z,1018.78